Time;durP1;ratioP1;P1;durP2;ratioP2;P2;SDS_P1;SDS_P2;PMS_P1;PMS_P2;Temp;Humidity;BMP_temperature;BMP_pressure;BME280_temperature;BME280_humidity;BME280_pressure;Samples;Min_cycle;Max_cycle;Signal;HPM_P1;HPM_P2
2022/01/19 00:02:02;;;;;;;25.17;9.88;;;;;;;;;;6125953;22;100050;-76
2022/01/19 00:04:29;;;;;;;25.40;10.05;;;;;;;;;;6152522;22;99968;-75
2022/01/19 00:06:55;;;;;;;27.63;9.60;;;;;;;;;;6102177;22;100245;-75
2022/01/19 00:09:24;;;;;;;27.63;9.15;;;;;;;;;;6126887;22;100669;-75
2022/01/19 00:11:51;;;;;;;29.10;8.73;;;;;;;;;;6152660;22;100673;-75
2022/01/19 00:14:17;;;;;;;28.17;9.63;;;;;;;;;;6153476;22;99902;-75
2022/01/19 00:16:44;;;;;;;29.73;10.48;;;;;;;;;;6125184;22;103268;-75
2022/01/19 00:19:11;;;;;;;22.25;8.32;;;;;;;;;;6124083;22;100619;-75
2022/01/19 00:21:38;;;;;;;22.88;7.95;;;;;;;;;;6153525;22;99992;-75
2022/01/19 00:24:06;;;;;;;20.83;8.10;;;;;;;;;;6127116;22;99961;-74
2022/01/19 00:26:34;;;;;;;25.08;8.95;;;;;;;;;;6126965;22;100082;-74
2022/01/19 00:29:01;;;;;;;30.58;10.55;;;;;;;;;;6153149;22;100462;-74
2022/01/19 00:31:28;;;;;;;35.63;12.43;;;;;;;;;;6100708;22;100150;-76
2022/01/19 00:33:55;;;;;;;35.70;12.13;;;;;;;;;;6153387;22;99860;-75
2022/01/19 00:36:22;;;;;;;32.17;10.57;;;;;;;;;;6100295;22;100374;-76
2022/01/19 00:38:49;;;;;;;36.63;10.88;;;;;;;;;;6100326;22;100473;-75
2022/01/19 00:41:17;;;;;;;34.58;12.13;;;;;;;;;;6126250;22;99977;-75
2022/01/19 00:43:44;;;;;;;25.50;10.20;;;;;;;;;;6153453;22;99942;-75
2022/01/19 00:46:12;;;;;;;23.55;9.13;;;;;;;;;;6123736;22;102142;-76
2022/01/19 00:48:40;;;;;;;28.77;9.93;;;;;;;;;;6150625;22;102054;-76
2022/01/19 00:51:07;;;;;;;24.52;10.20;;;;;;;;;;6126766;22;100131;-75
2022/01/19 00:53:35;;;;;;;21.67;7.75;;;;;;;;;;6125163;22;100016;-75
2022/01/19 00:56:03;;;;;;;27.45;9.23;;;;;;;;;;6101127;22;100218;-76
2022/01/19 00:58:30;;;;;;;28.10;10.05;;;;;;;;;;6151420;22;100530;-77
2022/01/19 01:00:57;;;;;;;20.63;7.40;;;;;;;;;;6076820;22;100124;-76
2022/01/19 01:03:24;;;;;;;21.13;8.77;;;;;;;;;;6153923;22;99906;-76
2022/01/19 01:05:51;;;;;;;19.77;8.02;;;;;;;;;;6101454;22;100096;-76
2022/01/19 01:08:18;;;;;;;25.23;10.20;;;;;;;;;;6150241;22;100522;-76
2022/01/19 01:10:45;;;;;;;21.48;7.68;;;;;;;;;;6126501;22;99879;-75
2022/01/19 01:13:23;;;;;;;26.05;7.95;;;;;;;;;;6127182;22;100139;-75
2022/01/19 01:16:15;;;;;;;19.55;7.03;;;;;;;;;;6126371;22;100425;-76
2022/01/19 01:18:42;;;;;;;14.73;6.70;;;;;;;;;;6104927;22;101160;-75
2022/01/19 01:21:09;;;;;;;21.60;6.88;;;;;;;;;;6127127;22;99972;-75
2022/01/19 01:23:36;;;;;;;16.60;7.03;;;;;;;;;;6151331;22;100014;-75
2022/01/19 01:26:04;;;;;;;18.88;6.88;;;;;;;;;;6125664;22;100222;-76
2022/01/19 01:28:31;;;;;;;23.73;7.38;;;;;;;;;;6151226;22;100723;-75
2022/01/19 01:30:57;;;;;;;22.63;8.15;;;;;;;;;;6075630;22;100193;-75
2022/01/19 01:33:24;;;;;;;17.95;7.07;;;;;;;;;;6151315;22;100374;-75
2022/01/19 01:35:51;;;;;;;18.83;6.35;;;;;;;;;;6125335;22;100502;-76
2022/01/19 01:38:21;;;;;;;17.30;5.82;;;;;;;;;;6150841;22;100549;-75
2022/01/19 01:41:08;;;;;;;;;;;;;;;;;;6125833;22;99860;-75
2022/01/19 01:43:35;;;;;;;20.05;6.45;;;;;;;;;;6151644;22;100030;-74
2022/01/19 01:46:05;;;;;;;13.00;5.07;;;;;;;;;;6148960;22;100381;-74
2022/01/19 01:48:41;;;;;;;15.02;6.05;;;;;;;;;;6123858;22;100471;-75
2022/01/19 01:53:57;;;;;;;15.25;4.45;;;;;;;;;;6127290;22;99927;-75
2022/01/19 01:56:24;;;;;;;16.00;6.07;;;;;;;;;;6151521;22;100160;-76
2022/01/19 01:59:00;;;;;;;14.90;5.80;;;;;;;;;;6125968;22;100635;-75
2022/01/19 02:01:27;;;;;;;14.90;5.05;;;;;;;;;;6151652;22;99834;-75
2022/01/19 02:03:54;;;;;;;13.30;5.20;;;;;;;;;;6102479;22;99941;-75
2022/01/19 02:09:13;;;;;;;14.60;5.10;;;;;;;;;;6105420;22;100573;-75
2022/01/19 02:23:08;;;;;;;13.45;5.53;;;;;;;;;;6130810;22;100022;-75
2022/01/19 02:25:41;;;;;;;13.68;5.47;;;;;;;;;;6127954;22;99952;-74
2022/01/19 02:41:41;;;;;;;11.93;4.65;;;;;;;;;;6127364;22;100720;-75
2022/01/19 02:44:10;;;;;;;15.27;4.88;;;;;;;;;;6103582;22;100012;-75
2022/01/19 02:49:14;;;;;;;18.17;4.60;;;;;;;;;;6102982;22;100060;-75
2022/01/19 02:51:46;;;;;;;13.32;4.35;;;;;;;;;;6128539;22;100765;-75
2022/01/19 02:54:14;;;;;;;20.13;5.25;;;;;;;;;;6127681;22;99953;-75
2022/01/19 02:56:44;;;;;;;16.33;5.65;;;;;;;;;;6154630;22;99749;-75
2022/01/19 02:59:27;;;;;;;15.77;4.80;;;;;;;;;;6102410;22;100073;-75
2022/01/19 03:10:10;;;;;;;16.10;5.85;;;;;;;;;;6105866;22;100176;-73
2022/01/19 03:12:37;;;;;;;20.55;7.05;;;;;;;;;;6126944;22;100658;-74
2022/01/19 03:15:07;;;;;;;11.60;4.82;;;;;;;;;;6121900;23;99853;-73
2022/01/19 03:17:34;;;;;;;13.73;5.45;;;;;;;;;;6127744;22;100136;-74
2022/01/19 03:20:02;;;;;;;13.55;5.05;;;;;;;;;;6153197;22;100440;-75
2022/01/19 03:22:36;;;;;;;17.23;6.40;;;;;;;;;;6126943;22;100511;-75
2022/01/19 03:25:10;;;;;;;18.58;7.25;;;;;;;;;;6104660;22;99890;-75
2022/01/19 03:27:37;;;;;;;17.48;6.40;;;;;;;;;;6127863;22;99916;-74
2022/01/19 03:30:09;;;;;;;23.58;7.93;;;;;;;;;;6151843;22;100050;-75
2022/01/19 03:32:36;;;;;;;17.88;7.05;;;;;;;;;;6126976;22;100546;-75
2022/01/19 03:35:04;;;;;;;16.92;5.45;;;;;;;;;;6127753;22;100405;-74
2022/01/19 03:37:30;;;;;;;19.38;6.60;;;;;;;;;;6127903;22;99998;-75
2022/01/19 03:39:57;;;;;;;19.23;7.28;;;;;;;;;;6126151;22;100563;-75
2022/01/19 03:42:25;;;;;;;15.57;5.60;;;;;;;;;;6126937;22;100550;-76
2022/01/19 03:44:52;;;;;;;18.10;6.85;;;;;;;;;;6102744;22;99962;-75
2022/01/19 03:47:19;;;;;;;23.45;10.82;;;;;;;;;;6127795;22;100814;-74
2022/01/19 03:49:46;;;;;;;19.77;8.25;;;;;;;;;;6101711;22;101239;-75
2022/01/19 03:52:13;;;;;;;23.02;7.90;;;;;;;;;;6127089;22;101069;-75
2022/01/19 03:54:42;;;;;;;18.33;7.63;;;;;;;;;;6127507;22;100011;-75
2022/01/19 03:57:09;;;;;;;13.40;6.65;;;;;;;;;;6103266;22;100475;-74
2022/01/19 03:59:38;;;;;;;20.10;8.07;;;;;;;;;;6102634;22;100080;-75
2022/01/19 04:02:05;;;;;;;21.02;8.23;;;;;;;;;;6127173;22;100588;-74
2022/01/19 04:04:40;;;;;;;19.27;7.53;;;;;;;;;;6152622;22;100030;-75
2022/01/19 04:07:27;;;;;;;19.02;6.15;;;;;;;;;;6154153;22;101182;-74
2022/01/19 04:09:54;;;;;;;18.40;5.90;;;;;;;;;;6077643;22;100115;-75
2022/01/19 04:12:41;;;;;;;21.65;7.60;;;;;;;;;;6102177;22;100520;-75
2022/01/19 04:15:10;;;;;;;11.93;6.03;;;;;;;;;;6121204;22;100007;-75
2022/01/19 04:17:41;;;;;;;19.48;6.13;;;;;;;;;;6152674;22;99977;-75
2022/01/19 04:20:09;;;;;;;12.48;4.68;;;;;;;;;;6103146;22;100207;-77
2022/01/19 04:22:36;;;;;;;16.20;5.40;;;;;;;;;;6126927;22;100453;-75
2022/01/19 04:25:06;;;;;;;13.98;5.32;;;;;;;;;;6127607;22;99796;-75
2022/01/19 04:27:33;;;;;;;11.52;4.63;;;;;;;;;;6154570;22;99848;-75
2022/01/19 04:30:10;;;;;;;19.08;6.40;;;;;;;;;;6126805;22;100644;-75
2022/01/19 04:35:31;;;;;;;34.25;9.18;;;;;;;;;;6127039;22;100123;-75
2022/01/19 04:38:41;;;;;;;32.80;7.70;;;;;;;;;;6103870;22;99863;-75
2022/01/19 05:06:12;;;;;;;13.60;5.78;;;;;;;;;;6126785;22;100558;-74
2022/01/19 05:14:09;;;;;;;15.23;6.20;;;;;;;;;;6151798;22;100250;-74
2022/01/19 05:16:36;;;;;;;15.52;5.93;;;;;;;;;;6126364;22;100562;-76
2022/01/19 05:19:03;;;;;;;14.35;6.43;;;;;;;;;;6127334;22;99861;-75
2022/01/19 05:21:32;;;;;;;16.17;6.07;;;;;;;;;;6127531;22;99857;-75
2022/01/19 05:24:19;;;;;;;12.20;5.20;;;;;;;;;;6130785;22;100185;-76
2022/01/19 05:27:05;;;;;;;13.70;4.93;;;;;;;;;;6130775;22;100704;-76
2022/01/19 05:29:34;;;;;;;11.98;5.70;;;;;;;;;;6126654;22;99854;-75
2022/01/19 05:32:01;;;;;;;15.25;4.80;;;;;;;;;;6127064;22;99834;-75
2022/01/19 05:34:28;;;;;;;17.08;7.60;;;;;;;;;;6127105;22;100170;-74
2022/01/19 05:37:07;;;;;;;14.35;6.90;;;;;;;;;;6126512;22;100586;-74
2022/01/19 05:40:14;;;;;;;20.17;8.32;;;;;;;;;;6020394;23;100000;-75
2022/01/19 05:42:49;;;;;;;18.83;7.72;;;;;;;;;;6003643;23;99950;-75
2022/01/19 05:45:17;;;;;;;25.38;8.90;;;;;;;;;;6070379;22;100203;-75
2022/01/19 05:47:45;;;;;;;16.88;7.35;;;;;;;;;;6126773;22;100673;-75
2022/01/19 05:50:13;;;;;;;24.42;7.72;;;;;;;;;;6102719;22;100158;-75
2022/01/19 05:52:40;;;;;;;19.27;7.43;;;;;;;;;;6101456;22;100067;-77
2022/01/19 05:55:07;;;;;;;18.90;7.68;;;;;;;;;;6077442;22;100080;-75
2022/01/19 05:57:34;;;;;;;21.10;8.57;;;;;;;;;;6126481;22;100656;-75
2022/01/19 06:00:05;;;;;;;19.42;7.70;;;;;;;;;;6126674;22;100108;-76
2022/01/19 06:02:49;;;;;;;15.70;6.97;;;;;;;;;;6130771;22;100191;-76
2022/01/19 06:05:21;;;;;;;16.20;6.97;;;;;;;;;;6126117;22;100746;-76
2022/01/19 06:08:17;;;;;;;15.70;6.47;;;;;;;;;;6119260;22;100687;-74
2022/01/19 06:11:00;;;;;;;12.80;6.25;;;;;;;;;;6126422;22;100571;-75
2022/01/19 06:13:27;;;;;;;18.85;6.93;;;;;;;;;;6102199;22;100220;-75
2022/01/19 06:15:54;;;;;;;22.08;6.93;;;;;;;;;;6152429;22;100191;-75
2022/01/19 06:18:21;;;;;;;16.92;6.88;;;;;;;;;;6125987;22;100544;-75
2022/01/19 06:20:49;;;;;;;15.45;5.47;;;;;;;;;;6126104;22;100027;-75
2022/01/19 06:23:21;;;;;;;10.52;4.65;;;;;;;;;;6078627;22;99897;-75
2022/01/19 06:25:59;;;;;;;13.82;5.72;;;;;;;;;;6126154;22;99798;-75
2022/01/19 06:28:26;;;;;;;15.75;6.22;;;;;;;;;;6077104;22;100807;-75
2022/01/19 06:30:52;;;;;;;15.68;6.90;;;;;;;;;;6126538;22;100083;-75
2022/01/19 06:33:19;;;;;;;17.75;6.57;;;;;;;;;;6153090;22;99929;-74
2022/01/19 06:35:46;;;;;;;13.27;6.50;;;;;;;;;;6126112;22;100118;-75
2022/01/19 06:38:33;;;;;;;15.45;4.53;;;;;;;;;;6151734;22;100504;-75
2022/01/19 06:41:03;;;;;;;15.07;5.85;;;;;;;;;;6151646;22;99819;-75
2022/01/19 06:43:31;;;;;;;13.13;5.25;;;;;;;;;;6126559;22;99821;-75
2022/01/19 06:46:00;;;;;;;17.20;6.13;;;;;;;;;;6125762;22;100209;-75
2022/01/19 06:48:31;;;;;;;15.43;6.13;;;;;;;;;;6126967;22;100530;-75
2022/01/19 06:50:59;;;;;;;14.77;6.35;;;;;;;;;;6151520;22;100020;-75
2022/01/19 06:53:39;;;;;;;12.80;6.22;;;;;;;;;;6126071;22;99841;-75
2022/01/19 06:56:11;;;;;;;15.18;6.18;;;;;;;;;;6100304;22;102725;-75
2022/01/19 06:58:39;;;;;;;18.20;6.30;;;;;;;;;;6125618;22;100659;-75
2022/01/19 07:01:25;;;;;;;15.88;6.22;;;;;;;;;;6151508;22;99817;-73
2022/01/19 07:04:14;;;;;;;14.57;5.07;;;;;;;;;;6153152;22;99717;-74
2022/01/19 07:06:41;;;;;;;15.32;5.07;;;;;;;;;;6150398;22;100182;-74
2022/01/19 07:09:14;;;;;;;15.18;4.97;;;;;;;;;;6125932;22;100686;-74
2022/01/19 07:11:49;;;;;;;13.13;5.68;;;;;;;;;;6102694;22;100101;-74
2022/01/19 07:14:17;;;;;;;21.73;6.55;;;;;;;;;;6126548;22;100932;-74
2022/01/19 07:16:45;;;;;;;13.05;4.15;;;;;;;;;;6125009;22;100217;-74
2022/01/19 07:19:13;;;;;;;18.55;4.93;;;;;;;;;;6125598;22;100549;-74
2022/01/19 07:21:41;;;;;;;10.38;4.30;;;;;;;;;;6101626;22;100073;-73
2022/01/19 07:24:08;;;;;;;8.85;4.55;;;;;;;;;;6126900;22;99943;-73
2022/01/19 07:26:35;;;;;;;15.05;4.93;;;;;;;;;;6127167;22;100455;-74
2022/01/19 07:29:04;;;;;;;13.48;5.18;;;;;;;;;;6078886;22;100561;-74
2022/01/19 07:31:31;;;;;;;13.70;5.93;;;;;;;;;;6122490;23;100032;-75
2022/01/19 07:34:02;;;;;;;16.50;5.60;;;;;;;;;;6116607;23;99895;-75
2022/01/19 07:36:29;;;;;;;15.30;6.38;;;;;;;;;;6126381;22;100381;-75
2022/01/19 07:38:56;;;;;;;15.50;5.38;;;;;;;;;;6126888;22;100494;-74
2022/01/19 07:41:23;;;;;;;13.52;5.45;;;;;;;;;;6102400;22;100185;-75
2022/01/19 07:43:54;;;;;;;10.35;5.07;;;;;;;;;;6128299;22;99885;-74
2022/01/19 07:46:24;;;;;;;10.25;4.90;;;;;;;;;;6127551;22;100191;-75
2022/01/19 07:49:09;;;;;;;14.80;5.22;;;;;;;;;;6153496;22;100727;-75
2022/01/19 07:51:44;;;;;;;15.50;5.20;;;;;;;;;;6100599;22;100024;-75
2022/01/19 07:54:30;;;;;;;9.05;4.35;;;;;;;;;;6152564;22;99928;-75
2022/01/19 07:57:23;;;;;;;11.18;4.60;;;;;;;;;;6125275;22;100128;-74
2022/01/19 08:00:25;;;;;;;10.38;4.07;;;;;;;;;;6032041;23;101109;-75
2022/01/19 08:02:51;;;;;;;9.88;4.50;;;;;;;;;;6128572;22;100070;-75
2022/01/19 08:05:45;;;;;;;14.80;5.03;;;;;;;;;;6151585;22;100085;-76
2022/01/19 08:08:12;;;;;;;22.98;8.27;;;;;;;;;;6126634;22;100402;-75
2022/01/19 08:10:42;;;;;;;30.83;10.55;;;;;;;;;;6125713;22;100605;-74
2022/01/19 08:13:09;;;;;;;16.88;4.93;;;;;;;;;;6076249;22;100042;-75
2022/01/19 08:15:36;;;;;;;13.65;5.20;;;;;;;;;;6102494;22;100619;-74
2022/01/19 08:18:05;;;;;;;11.98;4.72;;;;;;;;;;6101167;22;101123;-75
2022/01/19 08:20:32;;;;;;;10.50;4.07;;;;;;;;;;6152830;22;100553;-75
2022/01/19 08:22:59;;;;;;;13.80;4.15;;;;;;;;;;6153086;22;100054;-74
2022/01/19 08:25:38;;;;;;;9.82;4.70;;;;;;;;;;6101588;22;100595;-74
2022/01/19 08:28:05;;;;;;;16.23;4.18;;;;;;;;;;6125437;22;100322;-75
2022/01/19 08:30:34;;;;;;;13.38;4.30;;;;;;;;;;6100113;22;101251;-75
2022/01/19 08:33:01;;;;;;;12.18;4.55;;;;;;;;;;6126691;22;100137;-74
2022/01/19 08:35:54;;;;;;;9.98;3.97;;;;;;;;;;6147409;22;100352;-74
2022/01/19 08:38:27;;;;;;;10.82;4.60;;;;;;;;;;6125495;22;102399;-75
2022/01/19 08:41:06;;;;;;;14.07;5.60;;;;;;;;;;6127795;22;100624;-74
2022/01/19 08:43:35;;;;;;;13.07;4.57;;;;;;;;;;6103570;22;99839;-74
2022/01/19 08:46:04;;;;;;;14.95;5.90;;;;;;;;;;6078735;22;100541;-75
2022/01/19 08:48:49;;;;;;;16.95;6.57;;;;;;;;;;6152139;22;100412;-75
2022/01/19 08:51:35;;;;;;;17.17;6.15;;;;;;;;;;6151518;22;100520;-75
2022/01/19 08:54:13;;;;;;;18.80;6.75;;;;;;;;;;6149152;22;100282;-75
2022/01/19 08:56:45;;;;;;;17.05;7.40;;;;;;;;;;6101203;22;100417;-74
2022/01/19 08:59:12;;;;;;;15.32;6.40;;;;;;;;;;6151170;22;100009;-74
2022/01/19 09:01:39;;;;;;;15.52;5.97;;;;;;;;;;6101099;22;100813;-75
2022/01/19 09:04:06;;;;;;;13.02;5.63;;;;;;;;;;6151659;22;99953;-74
2022/01/19 09:06:33;;;;;;;12.65;5.40;;;;;;;;;;6099752;22;99963;-74
2022/01/19 09:09:00;;;;;;;14.75;5.95;;;;;;;;;;6150942;22;100154;-74
2022/01/19 09:11:27;;;;;;;15.15;5.28;;;;;;;;;;6125204;22;100677;-74
2022/01/19 09:13:54;;;;;;;13.15;4.85;;;;;;;;;;6152790;22;100300;-74
2022/01/19 09:16:21;;;;;;;12.50;4.50;;;;;;;;;;6125927;22;100900;-74
2022/01/19 09:18:48;;;;;;;12.73;4.35;;;;;;;;;;6150484;22;100195;-75
2022/01/19 09:21:14;;;;;;;11.85;4.82;;;;;;;;;;6150464;22;101185;-74
2022/01/19 09:23:41;;;;;;;13.82;4.90;;;;;;;;;;6125564;22;100435;-75
2022/01/19 09:26:09;;;;;;;11.18;4.60;;;;;;;;;;6152713;22;99927;-74
2022/01/19 09:28:36;;;;;;;16.05;5.75;;;;;;;;;;6152418;22;100403;-74
2022/01/19 09:31:23;;;;;;;9.80;4.40;;;;;;;;;;6151616;22;101087;-74
2022/01/19 09:34:15;;;;;;;8.90;4.78;;;;;;;;;;6152895;22;99955;-76
2022/01/19 09:36:45;;;;;;;10.65;4.00;;;;;;;;;;6151504;22;100320;-74
2022/01/19 09:39:24;;;;;;;11.23;4.07;;;;;;;;;;6126277;22;100073;-74
2022/01/19 09:41:51;;;;;;;11.70;4.47;;;;;;;;;;6125744;22;100728;-74
2022/01/19 09:44:19;;;;;;;11.23;4.22;;;;;;;;;;6126278;22;100505;-74
2022/01/19 09:46:47;;;;;;;11.55;5.40;;;;;;;;;;6150710;22;100017;-75
2022/01/19 09:49:15;;;;;;;11.88;3.72;;;;;;;;;;6125541;22;101308;-74
2022/01/19 09:51:43;;;;;;;12.43;5.57;;;;;;;;;;6099597;22;100650;-74
2022/01/19 09:54:14;;;;;;;14.05;5.57;;;;;;;;;;6151630;22;99965;-75
2022/01/19 09:56:41;;;;;;;9.75;4.13;;;;;;;;;;6152239;22;100454;-75
2022/01/19 09:59:08;;;;;;;11.60;4.75;;;;;;;;;;6150560;22;101388;-74
2022/01/19 10:01:47;;;;;;;12.95;5.22;;;;;;;;;;6149433;22;100666;-75
2022/01/19 10:04:42;;;;;;;10.68;4.80;;;;;;;;;;6125376;22;100065;-75
2022/01/19 10:07:19;;;;;;;12.00;4.45;;;;;;;;;;6123375;22;99999;-75
2022/01/19 10:09:57;;;;;;;12.77;5.05;;;;;;;;;;6099562;22;100101;-75
2022/01/19 10:18:29;;;;;;;11.05;4.10;;;;;;;;;;6104176;22;99938;-75
2022/01/19 10:21:15;;;;;;;10.35;3.70;;;;;;;;;;6149833;22;100373;-75
2022/01/19 10:23:49;;;;;;;8.55;4.40;;;;;;;;;;6124770;22;102705;-74
2022/01/19 10:26:26;;;;;;;14.32;4.65;;;;;;;;;;6151676;22;99931;-75
2022/01/19 10:29:07;;;;;;;9.50;4.40;;;;;;;;;;6150227;22;99983;-75
2022/01/19 10:31:36;;;;;;;9.85;4.40;;;;;;;;;;6123982;22;100682;-73
2022/01/19 10:34:10;;;;;;;8.25;3.67;;;;;;;;;;6098762;22;103280;-73
2022/01/19 10:36:45;;;;;;;11.63;4.55;;;;;;;;;;6075118;22;100020;-74
2022/01/19 10:39:13;;;;;;;12.20;4.45;;;;;;;;;;6125306;22;100331;-73
2022/01/19 10:41:59;;;;;;;15.15;5.10;;;;;;;;;;6150271;22;100727;-73
2022/01/19 10:44:49;;;;;;;9.90;4.15;;;;;;;;;;6150808;22;100776;-74
2022/01/19 10:47:53;;;;;;;16.45;6.57;;;;;;;;;;6128344;22;100099;-73
2022/01/19 10:50:25;;;;;;;21.83;5.07;;;;;;;;;;6124009;22;100289;-73
2022/01/19 10:52:53;;;;;;;13.25;4.68;;;;;;;;;;6124625;22;100033;-74
2022/01/19 10:55:20;;;;;;;26.85;6.15;;;;;;;;;;6148859;22;100548;-74
2022/01/19 10:57:47;;;;;;;12.63;5.55;;;;;;;;;;6124515;22;99912;-74
2022/01/19 11:00:21;;;;;;;10.88;5.03;;;;;;;;;;6126367;22;99920;-74
2022/01/19 11:02:50;;;;;;;10.40;4.72;;;;;;;;;;6151271;22;100173;-75
2022/01/19 11:05:17;;;;;;;11.77;4.10;;;;;;;;;;6151075;22;100595;-74
2022/01/19 11:07:44;;;;;;;14.32;5.70;;;;;;;;;;6101887;22;99858;-75
2022/01/19 11:12:47;;;;;;;10.27;5.25;;;;;;;;;;6151299;22;100563;-74
2022/01/19 11:15:17;;;;;;;18.65;5.25;;;;;;;;;;6124829;22;100582;-74
2022/01/19 11:17:48;;;;;;;26.08;6.40;;;;;;;;;;6152179;22;100495;-74
2022/01/19 11:20:19;;;;;;;13.40;6.05;;;;;;;;;;6150803;22;100968;-74
2022/01/19 11:23:07;;;;;;;13.27;5.20;;;;;;;;;;6125398;22;100347;-74
2022/01/19 11:25:50;;;;;;;9.93;4.35;;;;;;;;;;6100278;22;103213;-75
2022/01/19 11:28:35;;;;;;;17.30;4.35;;;;;;;;;;6126034;22;100119;-74
2022/01/19 11:31:22;;;;;;;12.65;4.72;;;;;;;;;;6151645;22;100026;-74
2022/01/19 11:33:56;;;;;;;17.15;5.10;;;;;;;;;;6113824;22;102393;-74
2022/01/19 11:36:30;;;;;;;32.97;4.65;;;;;;;;;;6149088;22;100589;-74
2022/01/19 11:39:02;;;;;;;16.00;4.70;;;;;;;;;;6151000;22;100418;-73
2022/01/19 11:41:38;;;;;;;11.30;4.65;;;;;;;;;;6151597;22;100231;-73
2022/01/19 11:44:06;;;;;;;10.15;4.57;;;;;;;;;;6151111;22;100195;-73
2022/01/19 11:46:36;;;;;;;8.25;4.47;;;;;;;;;;6150630;22;100741;-75
2022/01/19 11:49:03;;;;;;;11.75;5.50;;;;;;;;;;6149640;22;100276;-75
2022/01/19 11:51:30;;;;;;;12.15;4.68;;;;;;;;;;6151681;22;100034;-75
2022/01/19 11:54:30;;;;;;;9.30;4.88;;;;;;;;;;6124489;22;100246;-75
2022/01/19 11:57:04;;;;;;;10.13;3.92;;;;;;;;;;6124629;22;100570;-75
2022/01/19 11:59:47;;;;;;;10.70;4.78;;;;;;;;;;6152499;22;99987;-75
2022/01/19 12:02:33;;;;;;;9.57;3.92;;;;;;;;;;6151450;22;100246;-74
2022/01/19 12:05:24;;;;;;;12.02;4.30;;;;;;;;;;6151699;22;100200;-73
2022/01/19 12:07:57;;;;;;;13.40;5.03;;;;;;;;;;6125088;22;101149;-74
2022/01/19 12:10:31;;;;;;;13.32;4.97;;;;;;;;;;6149902;22;99848;-73
2022/01/19 12:13:17;;;;;;;;;;;;;;;;;;6152550;22;99997;-73
2022/01/19 12:15:49;;;;;;;;;;;;;;;;;;6150596;22;100315;-73
2022/01/19 12:18:47;;;;;;;17.58;5.65;;;;;;;;;;6149754;22;103404;-73
2022/01/19 12:21:31;;;;;;;11.70;5.28;;;;;;;;;;6125109;22;100031;-74
2022/01/19 12:24:22;;;;;;;21.08;6.00;;;;;;;;;;6152543;22;99907;-74
2022/01/19 12:27:01;;;;;;;10.50;4.72;;;;;;;;;;6124664;22;100318;-74
2022/01/19 12:29:34;;;;;;;14.70;5.50;;;;;;;;;;6151320;22;100534;-74
2022/01/19 12:32:01;;;;;;;16.35;6.00;;;;;;;;;;6100309;22;101208;-74
2022/01/19 12:34:57;;;;;;;18.67;5.80;;;;;;;;;;6150857;22;100079;-74
2022/01/19 12:37:50;;;;;;;21.75;6.47;;;;;;;;;;6125215;22;100153;-74
2022/01/19 12:40:17;;;;;;;18.13;5.85;;;;;;;;;;6139745;22;100688;-75
2022/01/19 12:42:49;;;;;;;12.93;5.50;;;;;;;;;;6151599;22;100083;-74
2022/01/19 12:45:18;;;;;;;12.70;4.18;;;;;;;;;;6125705;22;100009;-73
2022/01/19 12:47:47;;;;;;;17.73;6.00;;;;;;;;;;6124842;22;100194;-74
2022/01/19 12:50:17;;;;;;;24.80;6.25;;;;;;;;;;6151297;22;100493;-75
2022/01/19 12:52:45;;;;;;;24.08;7.28;;;;;;;;;;6152057;22;100060;-73
2022/01/19 12:55:20;;;;;;;15.75;5.32;;;;;;;;;;6152227;22;100950;-73
2022/01/19 12:57:48;;;;;;;17.83;5.68;;;;;;;;;;6150937;22;100289;-74
2022/01/19 13:00:28;;;;;;;19.52;6.18;;;;;;;;;;6150612;22;102040;-74
2022/01/19 13:02:57;;;;;;;18.38;6.70;;;;;;;;;;6125549;22;99842;-74
2022/01/19 13:05:25;;;;;;;12.82;5.60;;;;;;;;;;6125417;22;100661;-73
2022/01/19 13:07:56;;;;;;;14.25;5.70;;;;;;;;;;6125134;22;100103;-73
2022/01/19 13:13:23;;;;;;;13.63;5.80;;;;;;;;;;6150251;22;100381;-74
2022/01/19 13:15:54;;;;;;;21.75;6.45;;;;;;;;;;6099760;22;100416;-73
2022/01/19 13:18:31;;;;;;;19.15;6.68;;;;;;;;;;6150612;22;100801;-74
2022/01/19 13:21:03;;;;;;;10.68;5.25;;;;;;;;;;6098772;22;101278;-74
2022/01/19 13:23:32;;;;;;;17.02;5.90;;;;;;;;;;6149906;22;100044;-74
2022/01/19 13:26:04;;;;;;;18.90;7.30;;;;;;;;;;6125016;22;100116;-74
2022/01/19 13:28:32;;;;;;;14.27;5.82;;;;;;;;;;6124399;22;100188;-74
2022/01/19 13:31:18;;;;;;;17.13;5.90;;;;;;;;;;6151508;22;100585;-75
2022/01/19 13:33:55;;;;;;;18.52;7.15;;;;;;;;;;6149763;22;100377;-74
2022/01/19 13:36:28;;;;;;;15.57;6.55;;;;;;;;;;6151754;22;99908;-73
2022/01/19 13:38:55;;;;;;;12.00;6.10;;;;;;;;;;6149260;22;101494;-72
2022/01/19 13:41:22;;;;;;;13.18;6.25;;;;;;;;;;6124202;22;100584;-74
2022/01/19 13:43:49;;;;;;;14.82;6.13;;;;;;;;;;6124780;22;99950;-74
2022/01/19 13:46:24;;;;;;;15.90;6.32;;;;;;;;;;6124666;22;100436;-74
2022/01/19 13:48:59;;;;;;;13.68;5.60;;;;;;;;;;6125035;22;100270;-74
2022/01/19 13:51:29;;;;;;;16.02;6.35;;;;;;;;;;6150911;22;100643;-74
2022/01/19 13:54:00;;;;;;;12.15;5.25;;;;;;;;;;6125033;22;99801;-74
2022/01/19 13:56:38;;;;;;;10.50;5.05;;;;;;;;;;6125155;22;100045;-73
2022/01/19 13:59:17;;;;;;;13.40;5.22;;;;;;;;;;6124713;22;100414;-73
2022/01/19 14:04:21;;;;;;;12.13;4.93;;;;;;;;;;6125691;22;100094;-73
2022/01/19 14:06:50;;;;;;;11.10;5.30;;;;;;;;;;6125376;22;100158;-73
2022/01/19 14:09:35;;;;;;;13.40;5.20;;;;;;;;;;6150507;22;100638;-73
2022/01/19 14:12:16;;;;;;;12.38;5.28;;;;;;;;;;6150763;22;100563;-74
2022/01/19 14:14:49;;;;;;;10.52;5.10;;;;;;;;;;6149044;22;100127;-74
2022/01/19 14:17:31;;;;;;;14.90;6.15;;;;;;;;;;6151710;22;99891;-73
2022/01/19 14:20:01;;;;;;;13.10;6.05;;;;;;;;;;6125173;22;100582;-73
2022/01/19 14:22:32;;;;;;;12.77;6.13;;;;;;;;;;6150172;22;100480;-73
2022/01/19 14:25:02;;;;;;;11.70;4.93;;;;;;;;;;6149371;22;99968;-74
2022/01/19 14:27:52;;;;;;;12.82;5.35;;;;;;;;;;6151356;22;100211;-74
2022/01/19 14:30:25;;;;;;;15.18;5.68;;;;;;;;;;6123571;22;103454;-74
2022/01/19 14:32:56;;;;;;;12.13;5.40;;;;;;;;;;6124741;22;100543;-76
2022/01/19 14:35:41;;;;;;;14.35;5.38;;;;;;;;;;6152435;22;99961;-74
2022/01/19 14:39:09;;;;;;;15.57;6.18;;;;;;;;;;6151995;22;99987;-74
2022/01/19 14:42:13;;;;;;;13.55;5.30;;;;;;;;;;6089924;23;100806;-74
2022/01/19 14:45:37;;;;;;;13.55;4.75;;;;;;;;;;6014930;23;101002;-75
2022/01/19 14:53:23;;;;;;;12.43;5.40;;;;;;;;;;5938261;23;100367;-75
2022/01/19 14:55:52;;;;;;;12.00;5.80;;;;;;;;;;5973877;23;100679;-75
2022/01/19 14:58:35;;;;;;;13.48;5.35;;;;;;;;;;5918724;23;103063;-75
2022/01/19 15:01:02;;;;;;;10.32;5.25;;;;;;;;;;6031104;23;100648;-74
2022/01/19 15:03:30;;;;;;;23.77;7.28;;;;;;;;;;5983273;23;100436;-76
2022/01/19 15:27:52;;;;;;;18.00;6.80;;;;;;;;;;5069474;27;100232;-74
2022/01/19 15:40:17;;;;;;;16.90;7.50;;;;;;;;;;4865058;28;100918;-75
2022/01/19 15:43:01;;;;;;;23.92;9.02;;;;;;;;;;4847902;28;100381;-76
2022/01/19 15:50:58;;;;;;;23.63;8.95;;;;;;;;;;4955225;28;100213;-74
2022/01/19 15:54:22;;;;;;;21.10;8.90;;;;;;;;;;4947365;28;101754;-74
2022/01/19 15:57:19;;;;;;;22.05;9.65;;;;;;;;;;4955253;28;101247;-75
2022/01/19 16:00:07;;;;;;;21.60;9.45;;;;;;;;;;4965807;28;100526;-75
2022/01/19 16:03:49;;;;;;;24.52;9.02;;;;;;;;;;4968536;28;100396;-74
2022/01/19 16:11:28;;;;;;;;;;;;;;;;;;;;;
2022/01/19 16:18:56;;;;;;;24.95;9.80;;;;;;;;;;4895005;28;100272;-75
2022/01/19 16:21:35;;;;;;;24.15;9.07;;;;;;;;;;4987800;28;101395;-75
2022/01/19 16:26:47;;;;;;;26.77;9.82;;;;;;;;;;4976474;27;100203;-74
2022/01/19 16:29:14;;;;;;;23.23;7.70;;;;;;;;;;5049383;27;100085;-74
2022/01/19 16:31:43;;;;;;;23.00;8.00;;;;;;;;;;5049745;27;100180;-74
2022/01/19 16:34:10;;;;;;;21.70;8.18;;;;;;;;;;5046887;27;100587;-74
2022/01/19 16:36:37;;;;;;;27.85;10.30;;;;;;;;;;5028722;27;99959;-74
2022/01/19 16:39:06;;;;;;;22.02;8.43;;;;;;;;;;5029158;27;100086;-74
2022/01/19 16:41:34;;;;;;;25.25;10.25;;;;;;;;;;5029386;27;100255;-74
2022/01/19 16:44:05;;;;;;;25.85;8.73;;;;;;;;;;5046879;27;100611;-74
2022/01/19 16:46:40;;;;;;;17.60;7.57;;;;;;;;;;5049861;27;99956;-74
2022/01/19 16:49:09;;;;;;;20.75;7.40;;;;;;;;;;5029128;27;100921;-74
2022/01/19 16:51:36;;;;;;;24.27;10.07;;;;;;;;;;5027524;27;103398;-75
2022/01/19 16:54:03;;;;;;;17.55;6.57;;;;;;;;;;4987198;27;102965;-74
2022/01/19 16:56:35;;;;;;;20.30;8.43;;;;;;;;;;4985643;28;100150;-74
2022/01/19 16:59:04;;;;;;;23.30;9.82;;;;;;;;;;5034162;28;104030;-73
2022/01/19 17:01:33;;;;;;;23.77;10.20;;;;;;;;;;5034518;28;100284;-75
2022/01/19 17:04:01;;;;;;;22.92;9.35;;;;;;;;;;5033552;28;100646;-73
2022/01/19 17:06:28;;;;;;;23.65;10.27;;;;;;;;;;5010828;28;99986;-74
2022/01/19 17:08:55;;;;;;;25.38;12.02;;;;;;;;;;4996881;28;100103;-75
2022/01/19 17:11:22;;;;;;;28.42;12.80;;;;;;;;;;5016644;28;100348;-73
2022/01/19 17:14:04;;;;;;;26.08;13.23;;;;;;;;;;5016384;28;100937;-73
2022/01/19 17:16:39;;;;;;;15.57;8.10;;;;;;;;;;5033249;28;100153;-74
2022/01/19 17:19:09;;;;;;;18.98;8.85;;;;;;;;;;5034496;28;99970;-74
2022/01/19 17:21:36;;;;;;;23.20;8.63;;;;;;;;;;5035486;28;101428;-73